createdAt,value
2018-09-02T00:00:32.561Z,72.61
2018-09-02T00:03:07.041Z,72.61
2018-09-02T00:05:41.502Z,73.27
2018-09-02T00:08:22.824Z,73.62
2018-09-02T00:10:57.471Z,73.70
2018-09-02T00:13:32.008Z,73.71
2018-09-02T00:16:07.260Z,74.23
2018-09-02T00:18:41.778Z,74.14
2018-09-02T00:21:16.370Z,74.51
2018-09-02T00:23:51.077Z,74.79
2018-09-02T00:26:25.632Z,74.79
2018-09-02T00:29:00.705Z,74.96
2018-09-02T00:31:35.333Z,75.34
2018-09-02T00:37:09.659Z,75.99
2018-09-02T00:39:44.436Z,76.29
2018-09-02T00:42:19.075Z,76.39
2018-09-02T00:44:53.540Z,76.82
2018-09-02T00:47:28.208Z,77.13
2018-09-02T00:50:03.188Z,77.20
2018-09-02T00:52:37.981Z,77.29
2018-09-02T00:55:12.584Z,77.75
2018-09-02T00:57:47.085Z,77.67
2018-09-02T01:00:21.928Z,77.54
2018-09-02T01:02:56.825Z,77.33
2018-09-02T01:05:31.593Z,77.72
2018-09-02T01:08:06.601Z,78.35
2018-09-02T01:10:41.161Z,78.65
2018-09-02T01:16:25.665Z,78.92
2018-09-02T01:19:00.219Z,78.86
2018-09-02T01:21:35.023Z,77.84
2018-09-02T01:24:09.984Z,77.37
2018-09-02T01:26:44.408Z,76.89
2018-09-02T01:29:19.056Z,77.27
2018-09-02T01:31:53.895Z,77.28
2018-09-02T01:34:28.524Z,77.63
2018-09-02T01:37:02.944Z,77.22
2018-09-02T01:39:37.404Z,77.28
2018-09-02T01:42:12.164Z,77.51
2018-09-02T01:44:46.512Z,77.58
2018-09-02T01:47:21.076Z,78.25
2018-09-02T01:49:57.649Z,78.66
2018-09-02T01:52:32.108Z,78.35
2018-09-02T01:55:06.696Z,78.58
2018-09-02T01:57:41.284Z,78.90
2018-09-02T02:00:16.804Z,79.10
2018-09-02T02:02:51.744Z,78.50
2018-09-02T02:05:26.276Z,79.07
2018-09-02T02:08:00.780Z,79.38
2018-09-02T02:10:35.948Z,80.30
2018-09-02T02:13:10.472Z,80.15
2018-09-02T02:15:45.100Z,79.19
2018-09-02T02:18:19.661Z,78.50
2018-09-02T02:20:54.183Z,78.60
2018-09-02T02:23:28.841Z,79.91
2018-09-02T02:26:03.460Z,79.67
2018-09-02T02:28:38.000Z,79.89
2018-09-02T02:31:12.594Z,80.06
2018-09-02T02:33:47.161Z,79.48
2018-09-02T02:36:21.822Z,79.13
2018-09-02T02:38:56.505Z,80.13
2018-09-02T02:41:30.844Z,80.21
2018-09-02T02:44:05.656Z,79.68
2018-09-02T02:46:40.089Z,78.89
2018-09-02T02:49:14.376Z,79.19
2018-09-02T02:51:48.969Z,79.25
2018-09-02T02:54:23.566Z,78.52
2018-09-02T02:56:58.069Z,79.03
2018-09-02T02:59:32.636Z,79.75
2018-09-02T03:02:07.148Z,80.03
2018-09-02T03:04:42.159Z,79.82
2018-09-02T03:07:16.761Z,79.32
2018-09-02T03:09:51.423Z,79.26
2018-09-02T03:12:26.210Z,79.51
2018-09-02T03:15:00.772Z,79.12
2018-09-02T03:17:35.429Z,79.40
2018-09-02T03:20:09.996Z,79.88
2018-09-02T03:22:44.528Z,80.40
2018-09-02T03:25:19.085Z,79.86
2018-09-02T03:27:53.701Z,80.01
2018-09-02T03:30:28.215Z,80.30
2018-09-02T03:33:02.597Z,80.28
2018-09-02T03:35:37.003Z,79.56
2018-09-02T03:38:11.771Z,79.66
2018-09-02T03:40:46.332Z,80.05
2018-09-02T03:43:20.872Z,80.29
2018-09-02T03:45:55.197Z,79.98
2018-09-02T03:48:30.085Z,80.22
2018-09-02T03:51:04.670Z,81.25
2018-09-02T03:53:39.276Z,81.07
2018-09-02T03:56:13.797Z,81.59
2018-09-02T03:58:48.768Z,81.83
2018-09-02T04:01:23.299Z,81.92
2018-09-02T04:03:57.701Z,81.40
2018-09-02T04:06:32.209Z,81.75
2018-09-02T04:09:08.888Z,82.24
2018-09-02T04:11:43.421Z,82.00
2018-09-02T04:14:18.048Z,81.96
2018-09-02T04:16:52.977Z,82.76
2018-09-02T04:19:27.597Z,82.70
2018-09-02T04:22:02.247Z,82.23
2018-09-02T04:24:36.993Z,81.43
2018-09-02T04:27:11.600Z,81.95
2018-09-02T04:29:46.527Z,82.33
2018-09-02T04:32:20.967Z,81.18
2018-09-02T04:34:55.476Z,81.07
2018-09-02T04:37:29.958Z,80.87
2018-09-02T04:40:04.439Z,81.02
2018-09-02T04:42:38.985Z,81.32
2018-09-02T04:45:13.573Z,81.48
2018-09-02T04:47:48.091Z,81.04
2018-09-02T04:50:22.616Z,80.88
2018-09-02T04:52:57.106Z,80.63
2018-09-02T04:55:31.672Z,80.47
2018-09-02T04:58:06.156Z,80.21
2018-09-02T05:00:40.885Z,80.20
2018-09-02T05:03:15.505Z,80.27
2018-09-02T05:05:50.377Z,80.18
2018-09-02T05:08:25.036Z,80.01
2018-09-02T05:10:59.539Z,79.67
2018-09-02T05:13:34.062Z,79.82
2018-09-02T05:16:08.449Z,80.11
2018-09-02T05:18:43.166Z,79.55
2018-09-02T05:30:15.325Z,76.36
2018-09-02T05:32:50.156Z,76.03
2018-09-02T05:35:24.750Z,76.23
2018-09-02T05:37:59.108Z,75.86
2018-09-02T05:40:33.672Z,76.18
2018-09-02T05:43:08.271Z,76.97
2018-09-02T05:45:43.041Z,76.93
2018-09-02T05:48:17.605Z,77.24
2018-09-02T05:50:52.072Z,75.75
2018-09-02T05:53:26.757Z,71.44
2018-09-02T05:56:01.276Z,61.11
2018-09-02T05:58:35.897Z,55.16
2018-09-02T06:01:10.424Z,49.00
2018-09-02T06:03:44.940Z,46.51
2018-09-02T06:06:19.762Z,45.15
2018-09-02T06:08:54.324Z,45.10
2018-09-02T06:11:28.735Z,40.42
2018-09-02T06:17:12.809Z,41.32
2018-09-02T06:19:47.412Z,38.88
2018-09-02T06:22:22.014Z,38.89
2018-09-02T06:24:56.541Z,36.74
2018-09-02T06:27:31.163Z,35.39
2018-09-02T06:30:06.061Z,32.08
2018-09-02T06:32:40.520Z,32.70
2018-09-02T06:35:15.007Z,31.04
2018-09-02T06:37:49.445Z,31.25
2018-09-02T06:40:24.401Z,29.79
2018-09-02T06:42:59.100Z,29.49
2018-09-02T06:45:33.738Z,27.71
2018-09-02T06:48:08.064Z,29.10
2018-09-02T06:50:42.668Z,28.34
2018-09-02T06:53:17.698Z,27.93
2018-09-02T06:55:52.404Z,26.00
2018-09-02T06:58:27.021Z,31.84
2018-09-02T07:01:01.484Z,30.04
2018-09-02T07:03:36.224Z,28.54
2018-09-02T07:06:10.696Z,26.97
2018-09-02T07:08:45.276Z,27.56
2018-09-02T07:11:19.854Z,24.81
2018-09-02T07:13:54.756Z,25.86
2018-09-02T07:16:29.348Z,24.19
2018-09-02T07:19:04.549Z,24.42
2018-09-02T07:21:38.963Z,24.72
2018-09-02T07:24:13.429Z,24.36
2018-09-02T07:26:57.853Z,26.29
2018-09-02T07:29:32.381Z,26.72
2018-09-02T07:32:06.884Z,27.38
2018-09-02T07:34:41.377Z,24.55
2018-09-02T07:37:15.969Z,25.51
2018-09-02T07:39:50.348Z,23.94
2018-09-02T07:42:24.826Z,26.20
2018-09-02T07:44:59.356Z,25.36
2018-09-02T07:47:33.850Z,26.91
2018-09-02T07:50:08.447Z,33.30
2018-09-02T07:52:43.012Z,34.08
2018-09-02T07:55:17.541Z,33.44
2018-09-02T07:57:52.230Z,34.38
2018-09-02T08:00:26.804Z,32.44
2018-09-02T08:03:01.341Z,35.66
2018-09-02T08:05:36.017Z,37.61
2018-09-02T08:08:10.645Z,38.16
2018-09-02T08:10:45.039Z,39.55
2018-09-02T08:13:19.970Z,39.81
2018-09-02T08:15:54.365Z,38.84
2018-09-02T08:18:28.838Z,40.06
2018-09-02T08:21:05.566Z,41.26
2018-09-02T08:23:40.348Z,41.03
2018-09-02T08:26:14.964Z,41.87
2018-09-02T08:28:49.592Z,43.03
2018-09-02T08:31:24.922Z,44.68
2018-09-02T08:33:59.486Z,41.45
2018-09-02T08:36:34.368Z,40.79
2018-09-02T08:39:10.636Z,39.94
2018-09-02T08:41:45.087Z,38.78
2018-09-02T08:44:19.673Z,39.23
2018-09-02T08:46:54.013Z,40.21
2018-09-02T08:49:28.529Z,40.96
2018-09-02T08:52:04.145Z,40.52
2018-09-02T08:57:38.176Z,42.20
2018-09-02T09:00:13.973Z,41.85
2018-09-02T09:02:49.769Z,40.75
2018-09-02T09:05:24.494Z,39.03
2018-09-02T09:07:59.145Z,40.45
2018-09-02T09:10:33.636Z,41.28
2018-09-02T09:13:07.981Z,39.03
2018-09-02T09:15:42.292Z,37.91
2018-09-02T09:18:16.761Z,37.83
2018-09-02T09:20:51.535Z,35.29
2018-09-02T09:23:25.960Z,37.71
2018-09-02T09:26:00.404Z,35.79
2018-09-02T09:28:34.965Z,37.05
2018-09-02T09:31:09.932Z,34.68
2018-09-02T09:33:44.480Z,34.83
2018-09-02T09:36:19.022Z,31.61
2018-09-02T09:38:53.480Z,31.60
2018-09-02T09:41:28.105Z,32.05
2018-09-02T09:44:02.568Z,34.98
2018-09-02T09:46:37.012Z,39.06
2018-09-02T09:49:11.607Z,40.30
2018-09-02T09:51:45.981Z,40.97
2018-09-02T09:54:20.754Z,42.25
2018-09-02T09:56:55.256Z,40.60
2018-09-02T09:59:29.804Z,41.89
2018-09-02T10:02:04.269Z,42.62
2018-09-02T10:04:38.935Z,41.32
2018-09-02T10:07:13.540Z,41.95
2018-09-02T10:09:49.337Z,42.09
2018-09-02T10:12:23.752Z,42.53
2018-09-02T10:14:58.474Z,42.01
2018-09-02T10:17:33.104Z,41.39
2018-09-02T10:20:07.902Z,41.52
2018-09-02T10:22:42.549Z,41.70
2018-09-02T10:25:17.088Z,42.16
2018-09-02T10:27:51.805Z,42.23
2018-09-02T10:30:26.716Z,41.25
2018-09-02T10:33:01.239Z,40.87
2018-09-02T10:35:36.425Z,39.51
2018-09-02T10:38:11.217Z,36.98
2018-09-02T10:40:45.756Z,35.08
2018-09-02T10:43:22.063Z,32.69
2018-09-02T10:45:56.928Z,34.15
2018-09-02T10:54:29.184Z,34.55
2018-09-02T10:57:03.713Z,34.34
2018-09-02T10:59:38.816Z,32.18
2018-09-02T11:02:13.493Z,31.47
2018-09-02T11:04:48.140Z,30.06
2018-09-02T11:07:23.328Z,32.03
2018-09-02T11:09:57.813Z,32.99
2018-09-02T11:12:32.451Z,32.91
2018-09-02T11:15:07.490Z,35.63
2018-09-02T11:17:42.012Z,36.34
2018-09-02T11:20:16.633Z,34.80
2018-09-02T11:22:51.020Z,35.78
2018-09-02T11:25:25.485Z,36.43
2018-09-02T11:28:00.015Z,37.43
2018-09-02T11:30:34.678Z,35.78
2018-09-02T11:33:09.327Z,37.23
2018-09-02T11:38:55.640Z,37.81
2018-09-02T11:41:30.130Z,39.21
2018-09-02T11:44:04.920Z,38.41
2018-09-02T11:46:39.564Z,40.00
2018-09-02T11:49:14.076Z,39.42
2018-09-02T11:51:48.584Z,39.26
2018-09-02T11:54:23.241Z,39.23
2018-09-02T11:56:57.781Z,38.80
2018-09-02T11:59:32.457Z,39.61
2018-09-02T12:02:06.944Z,39.21
2018-09-02T12:04:41.364Z,40.22
2018-09-02T12:07:15.917Z,40.29
2018-09-02T12:09:50.395Z,40.24
2018-09-02T12:12:24.929Z,39.53
2018-09-02T12:14:59.396Z,39.63
2018-09-02T12:17:34.001Z,40.37
2018-09-02T12:20:08.881Z,39.21
2018-09-02T12:22:43.693Z,39.53
2018-09-02T12:25:18.472Z,40.69
2018-09-02T12:27:52.890Z,40.82
2018-09-02T12:33:46.939Z,39.22
2018-09-02T12:36:21.375Z,39.84
2018-09-02T12:38:56.165Z,39.33
2018-09-02T12:41:30.661Z,39.94
2018-09-02T12:44:05.126Z,38.97
2018-09-02T12:46:39.717Z,38.65
2018-09-02T12:49:14.273Z,39.86
2018-09-02T12:51:49.052Z,38.86
2018-09-02T12:54:23.767Z,38.67
2018-09-02T12:56:58.316Z,39.31
2018-09-02T12:59:32.941Z,39.28
2018-09-02T13:02:07.436Z,39.33
2018-09-02T13:04:41.843Z,38.55
2018-09-02T13:07:16.269Z,38.04
2018-09-02T13:09:50.813Z,38.05
2018-09-02T13:12:25.281Z,38.91
2018-09-02T13:14:59.872Z,38.11
2018-09-02T13:17:41.121Z,38.64
2018-09-02T13:20:15.597Z,37.58
2018-09-02T13:22:50.094Z,38.10
2018-09-02T13:25:24.957Z,38.47
2018-09-02T13:27:59.512Z,38.02
2018-09-02T13:30:34.153Z,38.28
2018-09-02T13:33:08.605Z,38.37
2018-09-02T13:35:42.978Z,37.62
2018-09-02T13:38:17.396Z,38.14
2018-09-02T13:40:51.985Z,37.23
2018-09-02T13:43:45.001Z,37.07
2018-09-02T13:46:19.344Z,37.52
2018-09-02T13:48:53.652Z,37.01
2018-09-02T13:51:28.180Z,37.31
2018-09-02T13:54:02.840Z,36.63
2018-09-02T13:56:37.482Z,36.55
2018-09-02T13:59:12.007Z,36.25
2018-09-02T14:01:46.564Z,36.15
2018-09-02T14:04:21.069Z,36.88
2018-09-02T14:06:55.635Z,36.76
2018-09-02T14:09:30.472Z,36.20
2018-09-02T14:12:05.297Z,36.27
2018-09-02T14:14:40.036Z,35.95
2018-09-02T14:17:14.500Z,36.88
2018-09-02T14:19:49.052Z,35.97
2018-09-02T14:22:23.512Z,35.48
2018-09-02T14:24:58.177Z,36.00
2018-09-02T14:27:32.673Z,35.60
2018-09-02T14:30:07.662Z,34.85
2018-09-02T14:32:42.148Z,34.33
2018-09-02T14:35:17.002Z,33.13
2018-09-02T14:37:51.357Z,32.12
2018-09-02T14:40:26.028Z,32.00
2018-09-02T14:43:00.673Z,30.45
2018-09-02T14:45:35.201Z,28.28
2018-09-02T14:48:09.616Z,27.58
2018-09-02T14:50:44.182Z,26.61
2018-09-02T14:53:18.511Z,26.37
2018-09-02T14:55:52.980Z,26.22
2018-09-02T14:58:27.533Z,25.32
2018-09-02T15:01:02.197Z,26.30
2018-09-02T15:03:36.821Z,25.76
2018-09-02T15:06:11.395Z,25.31
2018-09-02T15:08:45.842Z,25.18
2018-09-02T15:11:20.487Z,26.19
2018-09-02T15:13:54.989Z,26.53
2018-09-02T15:16:29.844Z,29.09
2018-09-02T15:19:05.608Z,29.11
2018-09-02T15:21:40.485Z,29.38
2018-09-02T15:24:15.233Z,29.92
2018-09-02T15:26:49.985Z,28.76
2018-09-02T15:29:24.646Z,29.78
2018-09-02T15:31:59.186Z,28.13
2018-09-02T15:34:33.720Z,29.03
2018-09-02T15:37:08.314Z,29.39
2018-09-02T15:39:42.869Z,28.39
2018-09-02T15:42:17.352Z,29.63
2018-09-02T15:44:51.817Z,28.27
2018-09-02T15:47:26.232Z,29.28
2018-09-02T15:50:00.701Z,29.19
2018-09-02T15:52:35.505Z,28.63
2018-09-02T15:55:10.024Z,29.04
2018-09-02T15:57:44.473Z,28.67
2018-09-02T16:00:19.048Z,29.53
2018-09-02T16:02:53.663Z,30.02
2018-09-02T16:05:28.128Z,29.96
2018-09-02T16:08:02.472Z,28.81
2018-09-02T16:10:37.133Z,29.58
2018-09-02T16:22:29.584Z,32.75
2018-09-02T16:25:04.216Z,33.18
2018-09-02T16:27:38.744Z,33.82
2018-09-02T16:30:13.068Z,34.16
2018-09-02T16:32:47.554Z,34.75
2018-09-02T16:35:22.056Z,34.27
2018-09-02T16:37:56.712Z,34.46
2018-09-02T16:40:31.397Z,34.71
2018-09-02T16:43:06.100Z,35.33
2018-09-02T16:45:40.576Z,36.10
2018-09-02T16:48:15.154Z,36.09
2018-09-02T16:50:49.725Z,35.84
2018-09-02T16:53:38.623Z,36.03
2018-09-02T16:56:13.152Z,35.57
2018-09-02T16:58:47.965Z,36.85
2018-09-02T17:01:22.554Z,37.12
2018-09-02T17:04:02.552Z,37.66
2018-09-02T17:06:37.684Z,38.22
2018-09-02T17:09:12.749Z,37.55
2018-09-02T17:11:47.625Z,37.83
2018-09-02T17:14:36.157Z,37.45
2018-09-02T17:17:10.633Z,37.33
2018-09-02T17:19:47.692Z,37.79
2018-09-02T17:22:22.271Z,37.76
2018-09-02T17:24:56.765Z,37.93
2018-09-02T17:27:31.240Z,38.58
2018-09-02T17:30:06.077Z,39.38
2018-09-02T17:32:40.571Z,38.85
2018-09-02T17:35:15.232Z,40.25
2018-09-02T17:37:49.769Z,39.59
2018-09-02T17:40:24.232Z,39.54
2018-09-02T17:42:58.782Z,39.40
2018-09-02T17:45:33.597Z,39.18
2018-09-02T17:48:08.269Z,40.40
2018-09-02T17:50:42.741Z,40.23
2018-09-02T17:53:17.194Z,39.83
2018-09-02T17:55:51.785Z,39.95
2018-09-02T17:58:26.345Z,40.82
2018-09-02T18:01:01.537Z,40.44
2018-09-02T18:06:35.706Z,39.98
2018-09-02T18:09:11.157Z,41.12
2018-09-02T18:11:45.770Z,40.90
2018-09-02T18:14:32.232Z,41.13
2018-09-02T18:17:06.972Z,41.35
2018-09-02T18:19:41.564Z,42.13
2018-09-02T18:22:16.268Z,41.66
2018-09-02T18:27:55.897Z,41.52
2018-09-02T18:30:30.507Z,44.03
2018-09-02T18:33:05.185Z,43.24
2018-09-02T18:35:39.941Z,42.92
2018-09-02T18:38:14.450Z,42.36
2018-09-02T18:40:48.877Z,43.33
2018-09-02T18:43:23.473Z,43.68
2018-09-02T18:45:58.043Z,43.21
2018-09-02T18:48:44.748Z,43.21
2018-09-02T18:54:20.260Z,43.25
2018-09-02T18:56:54.804Z,43.69
2018-09-02T18:59:29.447Z,43.53
2018-09-02T19:02:04.404Z,43.51
2018-09-02T19:04:39.169Z,43.32
2018-09-02T19:07:13.614Z,43.33
2018-09-02T19:09:48.328Z,43.49
2018-09-02T19:12:23.221Z,43.73
2018-09-02T19:14:57.958Z,43.25
2018-09-02T19:17:32.497Z,42.97
2018-09-02T19:20:07.477Z,43.17
2018-09-02T19:22:42.024Z,43.36
2018-09-02T19:25:16.785Z,43.42
2018-09-02T19:27:51.332Z,43.54
2018-09-02T19:30:25.976Z,44.62
2018-09-02T19:33:00.465Z,44.64
2018-09-02T19:35:35.017Z,45.70
2018-09-02T19:38:09.653Z,45.59
2018-09-02T19:40:44.204Z,45.55
2018-09-02T19:43:18.745Z,46.14
2018-09-02T19:45:53.384Z,46.11
2018-09-02T19:48:27.954Z,46.43
2018-09-02T19:51:02.568Z,46.68
2018-09-02T19:53:37.808Z,47.01
2018-09-02T19:56:12.344Z,47.43
2018-09-02T19:58:47.033Z,47.22
2018-09-02T20:01:21.528Z,47.67
2018-09-02T20:03:56.233Z,47.94
2018-09-02T20:06:30.733Z,48.12
2018-09-02T20:09:13.272Z,48.34
2018-09-02T20:11:48.094Z,48.09
2018-09-02T20:14:22.852Z,48.80
2018-09-02T20:16:57.802Z,48.22
2018-09-02T20:19:32.232Z,48.35
2018-09-02T20:22:09.236Z,48.83
2018-09-02T20:24:43.852Z,48.79
2018-09-02T20:27:18.234Z,48.88
2018-09-02T20:29:52.832Z,48.79
2018-09-02T20:32:27.272Z,48.63
2018-09-02T20:35:01.886Z,49.34
2018-09-02T20:37:36.448Z,49.56
2018-09-02T20:40:11.032Z,50.58
2018-09-02T20:42:45.593Z,50.53
2018-09-02T20:45:20.428Z,51.45
2018-09-02T20:47:55.384Z,52.14
2018-09-02T20:50:29.732Z,53.02
2018-09-02T20:53:04.149Z,52.96
2018-09-02T20:55:38.800Z,52.83
2018-09-02T20:58:13.334Z,52.99
2018-09-02T21:00:47.824Z,53.29
2018-09-02T21:03:22.303Z,53.74
2018-09-02T21:05:57.204Z,53.47
2018-09-02T21:08:31.827Z,54.01
2018-09-02T21:11:06.364Z,54.20
2018-09-02T21:13:40.958Z,54.51
2018-09-02T21:16:15.425Z,54.06
2018-09-02T21:18:49.961Z,54.78
2018-09-02T21:21:24.525Z,54.77
2018-09-02T21:23:59.037Z,54.35
2018-09-02T21:26:33.462Z,54.41
2018-09-02T21:29:07.924Z,54.80
2018-09-02T21:31:42.545Z,55.56
2018-09-02T21:34:17.014Z,55.51
2018-09-02T21:36:51.644Z,55.36
2018-09-02T21:39:26.063Z,55.26
2018-09-02T21:42:00.513Z,56.28
2018-09-02T21:44:35.219Z,55.98
2018-09-02T21:47:09.635Z,56.22
2018-09-02T21:49:44.533Z,55.79
2018-09-02T21:52:19.119Z,56.35
2018-09-02T21:54:53.732Z,56.30
2018-09-02T21:57:28.310Z,56.08
2018-09-02T22:00:03.155Z,56.32
2018-09-02T22:02:37.576Z,56.34
2018-09-02T22:05:13.492Z,56.37
2018-09-02T22:07:48.031Z,56.81
2018-09-02T22:10:22.554Z,56.62
2018-09-02T22:12:57.139Z,56.86
2018-09-02T22:15:31.997Z,56.59
2018-09-02T22:18:06.881Z,56.69
2018-09-02T22:20:41.424Z,56.93
2018-09-02T22:23:15.808Z,57.62
2018-09-02T22:25:50.264Z,57.96
2018-09-02T22:28:24.658Z,57.64
2018-09-02T22:30:59.237Z,58.21
2018-09-02T22:33:33.839Z,57.82
2018-09-02T22:36:08.541Z,58.34
2018-09-02T22:38:43.094Z,58.55
2018-09-02T22:41:17.504Z,58.45
2018-09-02T22:43:52.138Z,59.17
2018-09-02T22:46:26.680Z,59.14
2018-09-02T22:49:01.288Z,59.15
2018-09-02T22:51:35.901Z,59.40
2018-09-02T22:54:10.349Z,59.01
2018-09-02T22:56:44.961Z,59.24
2018-09-02T22:59:19.556Z,59.95
2018-09-02T23:01:54.048Z,59.92
2018-09-02T23:04:28.643Z,60.39
2018-09-02T23:07:03.246Z,60.49
2018-09-02T23:09:38.014Z,60.28
2018-09-02T23:12:12.629Z,60.42
2018-09-02T23:14:47.212Z,60.30
2018-09-02T23:17:21.744Z,61.11
2018-09-02T23:19:56.223Z,61.88
2018-09-02T23:22:30.728Z,62.46
2018-09-02T23:25:05.358Z,62.78
2018-09-02T23:27:40.026Z,62.98
2018-09-02T23:30:14.680Z,63.56
2018-09-02T23:32:49.324Z,64.04
2018-09-02T23:35:27.037Z,64.96
2018-09-02T23:38:14.758Z,65.56
2018-09-02T23:40:49.120Z,66.05
2018-09-02T23:43:23.609Z,66.90
2018-09-02T23:45:58.056Z,66.99
2018-09-02T23:48:32.464Z,67.08
2018-09-02T23:51:06.997Z,67.48
2018-09-02T23:53:41.621Z,67.81
2018-09-02T23:56:16.222Z,67.97
2018-09-02T23:58:50.938Z,68.17
